createdAt,value
2023-01-25T00:00:07.189Z,42.13
2023-01-25T00:02:54.917Z,76.80
2023-01-25T00:05:22.971Z,60.83
2023-01-25T00:07:50.790Z,38.03
2023-01-25T00:10:19.126Z,35.00
2023-01-25T00:12:47.057Z,35.40
2023-01-25T00:15:15.278Z,35.60
2023-01-25T00:17:43.122Z,37.20
2023-01-25T00:20:11.485Z,34.50
2023-01-25T00:22:39.234Z,39.63
2023-01-25T00:25:07.722Z,41.33
2023-01-25T00:27:35.657Z,36.17
2023-01-25T00:30:03.632Z,38.93
2023-01-25T00:32:54.387Z,33.80
2023-01-25T00:35:22.489Z,33.03
2023-01-25T00:37:53.619Z,33.43
2023-01-25T00:40:22.946Z,32.97
2023-01-25T00:42:50.968Z,33.73
2023-01-25T00:45:21.045Z,31.47
2023-01-25T00:47:48.992Z,34.20
2023-01-25T00:50:17.329Z,29.03
2023-01-25T00:52:45.079Z,27.93
2023-01-25T00:55:13.553Z,28.03
2023-01-25T00:57:41.272Z,28.90
2023-01-25T01:00:09.814Z,29.23
2023-01-25T01:02:37.739Z,29.00
2023-01-25T01:05:06.351Z,30.80
2023-01-25T01:07:34.502Z,31.33
2023-01-25T01:10:02.705Z,31.50
2023-01-25T01:12:30.524Z,31.87
2023-01-25T01:14:59.196Z,31.03
2023-01-25T01:17:27.557Z,30.13
2023-01-25T01:19:55.739Z,29.00
2023-01-25T01:22:23.538Z,31.07
2023-01-25T01:24:51.783Z,31.13
2023-01-25T01:27:19.707Z,31.30
2023-01-25T01:29:47.776Z,27.40
2023-01-25T01:32:15.956Z,28.23
2023-01-25T01:34:44.687Z,26.17
2023-01-25T01:37:13.092Z,25.80
2023-01-25T01:39:42.219Z,28.73
2023-01-25T01:42:10.116Z,29.87
2023-01-25T01:45:25.453Z,28.40
2023-01-25T01:47:53.376Z,26.63
2023-01-25T01:50:23.918Z,27.03
2023-01-25T01:52:53.431Z,26.37
2023-01-25T01:55:24.936Z,24.93
2023-01-25T01:57:58.223Z,26.13
2023-01-25T02:00:28.065Z,24.47
2023-01-25T02:02:56.467Z,27.33
2023-01-25T02:05:58.709Z,28.97
2023-01-25T02:08:28.199Z,27.20
2023-01-25T02:11:01.409Z,30.97
2023-01-25T02:13:29.396Z,26.13
2023-01-25T02:15:57.688Z,25.93
2023-01-25T02:18:25.688Z,24.80
2023-01-25T02:20:57.228Z,25.60
2023-01-25T02:23:41.248Z,23.03
2023-01-25T02:26:10.364Z,23.60
2023-01-25T02:28:38.053Z,20.73
2023-01-25T02:31:06.312Z,19.87
2023-01-25T02:33:34.221Z,18.17
2023-01-25T02:36:08.525Z,18.17
2023-01-25T02:38:38.094Z,20.80
2023-01-25T02:41:09.148Z,24.00
2023-01-25T02:43:36.990Z,21.03
2023-01-25T02:46:12.875Z,21.37
2023-01-25T02:48:44.544Z,19.27
2023-01-25T02:51:13.152Z,20.00
2023-01-25T02:53:41.763Z,20.13
2023-01-25T02:56:09.765Z,20.23
2023-01-25T02:58:37.498Z,17.60
2023-01-25T03:01:06.295Z,18.13
2023-01-25T03:03:34.359Z,19.00
2023-01-25T03:06:03.031Z,20.67
2023-01-25T03:08:31.225Z,20.07
2023-01-25T03:11:00.406Z,21.40
2023-01-25T03:13:30.682Z,23.47
2023-01-25T03:16:05.092Z,22.53
2023-01-25T03:18:33.461Z,19.60
2023-01-25T03:21:18.751Z,16.93
2023-01-25T03:23:48.052Z,19.07
2023-01-25T03:26:22.706Z,18.30
2023-01-25T03:29:05.140Z,20.17
2023-01-25T03:31:36.068Z,21.33
2023-01-25T03:34:04.006Z,21.47
2023-01-25T03:36:36.481Z,22.47
2023-01-25T03:39:04.600Z,20.53
2023-01-25T03:41:37.047Z,18.17
2023-01-25T03:44:07.064Z,17.70
2023-01-25T03:46:35.278Z,19.93
2023-01-25T03:49:05.091Z,19.47
2023-01-25T03:51:33.912Z,17.27
2023-01-25T03:54:03.336Z,18.03
2023-01-25T03:56:31.584Z,20.23
2023-01-25T03:59:11.104Z,19.27
2023-01-25T04:01:39.433Z,22.50
2023-01-25T04:04:07.157Z,18.20
2023-01-25T04:06:36.324Z,18.27
2023-01-25T04:09:04.294Z,18.67
2023-01-25T04:11:39.355Z,19.43
2023-01-25T04:14:07.211Z,22.30
2023-01-25T04:16:44.940Z,19.30
2023-01-25T04:19:35.641Z,16.67
2023-01-25T04:22:05.836Z,16.90
2023-01-25T04:24:37.725Z,16.57
2023-01-25T04:27:06.426Z,16.67
2023-01-25T04:29:42.052Z,17.83
2023-01-25T04:32:16.188Z,20.67
2023-01-25T04:34:44.244Z,27.93
2023-01-25T04:37:16.809Z,19.83
2023-01-25T04:39:52.747Z,18.10
2023-01-25T04:42:21.503Z,28.87
2023-01-25T04:44:53.547Z,31.90
2023-01-25T04:47:21.815Z,34.60
2023-01-25T04:49:49.667Z,26.93
2023-01-25T04:52:21.263Z,20.80
2023-01-25T04:54:49.042Z,29.90
2023-01-25T04:57:17.724Z,41.03
2023-01-25T04:59:50.411Z,37.67
2023-01-25T05:02:18.853Z,32.40
2023-01-25T05:04:47.091Z,35.60
2023-01-25T05:07:15.115Z,32.20
2023-01-25T05:09:43.299Z,18.13
2023-01-25T05:12:13.842Z,16.53
2023-01-25T05:15:08.293Z,20.03
2023-01-25T05:17:36.753Z,23.83
2023-01-25T05:20:05.256Z,22.17
2023-01-25T05:22:33.723Z,19.30
2023-01-25T05:25:03.052Z,19.37
2023-01-25T05:27:31.661Z,25.43
2023-01-25T05:30:19.781Z,22.63
2023-01-25T05:32:59.020Z,25.80
2023-01-25T05:35:26.802Z,20.47
2023-01-25T05:38:00.456Z,14.30
2023-01-25T05:40:28.979Z,14.63
2023-01-25T05:43:00.809Z,15.53
2023-01-25T05:45:30.456Z,14.53
2023-01-25T05:48:00.114Z,14.30
2023-01-25T05:50:28.205Z,15.20
2023-01-25T05:53:04.203Z,15.03
2023-01-25T05:55:32.033Z,16.13
2023-01-25T05:58:05.505Z,14.97
2023-01-25T06:00:33.631Z,15.63
2023-01-25T06:03:02.834Z,16.63
2023-01-25T06:05:33.144Z,18.43
2023-01-25T06:08:01.672Z,17.07
2023-01-25T06:10:45.958Z,18.73
2023-01-25T06:13:14.186Z,16.20
2023-01-25T06:15:43.461Z,33.13
2023-01-25T06:18:49.559Z,22.47
2023-01-25T06:21:55.655Z,30.67
2023-01-25T06:24:23.714Z,15.00
2023-01-25T06:26:51.544Z,16.53
2023-01-25T06:29:19.654Z,31.37
2023-01-25T06:31:47.657Z,37.97
2023-01-25T06:34:15.745Z,55.33
2023-01-25T06:36:43.973Z,20.70
2023-01-25T06:39:11.943Z,15.73
2023-01-25T06:41:39.612Z,15.83
2023-01-25T06:44:07.695Z,13.70
2023-01-25T06:46:35.900Z,14.63
2023-01-25T06:49:04.005Z,12.87
2023-01-25T06:51:32.408Z,13.20
2023-01-25T06:54:03.054Z,14.53
2023-01-25T06:56:32.811Z,13.33
2023-01-25T06:59:01.133Z,13.53
2023-01-25T07:01:30.703Z,15.07
2023-01-25T07:04:00.045Z,16.33
2023-01-25T07:06:34.370Z,16.57
2023-01-25T07:09:14.129Z,16.87
2023-01-25T07:11:42.091Z,16.63
2023-01-25T07:14:10.036Z,16.83
2023-01-25T07:16:38.712Z,18.80
2023-01-25T07:19:07.165Z,21.63
2023-01-25T07:21:35.247Z,18.77
2023-01-25T07:24:04.713Z,24.67
2023-01-25T07:26:32.686Z,24.53
2023-01-25T07:29:01.149Z,18.37
2023-01-25T07:31:29.860Z,20.33
2023-01-25T07:33:58.555Z,22.07
2023-01-25T07:36:26.503Z,32.97
2023-01-25T07:38:55.313Z,33.37
2023-01-25T07:41:23.630Z,23.90
2023-01-25T07:43:53.446Z,23.93
2023-01-25T07:46:31.038Z,28.90
2023-01-25T07:48:59.136Z,31.47
2023-01-25T07:51:28.075Z,39.00
2023-01-25T07:54:04.446Z,35.90
2023-01-25T07:56:40.788Z,31.13
2023-01-25T07:59:14.330Z,41.13
2023-01-25T08:01:42.267Z,39.57
2023-01-25T08:04:10.867Z,48.77
2023-01-25T08:06:39.648Z,27.77
2023-01-25T08:09:21.607Z,22.10
2023-01-25T08:11:49.647Z,16.53
2023-01-25T08:14:17.962Z,18.60
2023-01-25T08:16:46.108Z,34.70
2023-01-25T08:19:14.352Z,35.03
2023-01-25T08:21:42.583Z,22.57
2023-01-25T08:24:10.933Z,19.07
2023-01-25T08:26:38.860Z,18.27
2023-01-25T08:29:07.349Z,17.87
2023-01-25T08:31:35.936Z,16.70
2023-01-25T08:34:04.227Z,16.87
2023-01-25T08:36:32.467Z,18.73
2023-01-25T08:39:09.147Z,17.27
2023-01-25T08:41:37.077Z,17.20
2023-01-25T08:44:05.857Z,15.23
2023-01-25T08:46:34.615Z,17.53
2023-01-25T08:49:02.961Z,17.07
2023-01-25T08:51:31.842Z,17.67
2023-01-25T08:54:07.263Z,16.50
2023-01-25T08:56:37.525Z,17.50
2023-01-25T08:59:06.874Z,15.73
2023-01-25T09:01:34.956Z,15.90
2023-01-25T09:04:03.157Z,17.07
2023-01-25T09:06:31.753Z,18.07
2023-01-25T09:09:04.921Z,20.20
2023-01-25T09:11:34.771Z,22.37
2023-01-25T09:14:02.845Z,19.93
2023-01-25T09:16:30.871Z,19.70
2023-01-25T09:19:01.328Z,17.20
2023-01-25T09:21:29.476Z,17.40
2023-01-25T09:24:05.851Z,16.97
2023-01-25T09:26:35.397Z,17.00
2023-01-25T09:29:03.820Z,15.83
2023-01-25T09:31:31.906Z,16.80
2023-01-25T09:34:12.413Z,16.50
2023-01-25T09:36:40.288Z,17.67
2023-01-25T09:39:08.734Z,19.93
2023-01-25T09:41:45.646Z,19.40
2023-01-25T09:44:39.539Z,20.40
2023-01-25T09:47:22.935Z,19.13
2023-01-25T09:50:18.937Z,17.83
2023-01-25T09:53:12.711Z,16.73
2023-01-25T09:55:42.155Z,16.30
2023-01-25T09:58:14.849Z,26.23
2023-01-25T10:00:45.411Z,27.07
2023-01-25T10:03:13.113Z,23.83
2023-01-25T10:05:47.221Z,17.10
2023-01-25T10:08:31.415Z,17.70
2023-01-25T10:11:26.962Z,14.93
2023-01-25T10:13:58.528Z,13.70
2023-01-25T10:16:42.351Z,15.17
2023-01-25T10:19:11.365Z,16.03
2023-01-25T10:21:48.751Z,15.70
2023-01-25T10:24:23.684Z,16.07
2023-01-25T10:27:03.817Z,16.77
2023-01-25T10:29:36.732Z,17.50
2023-01-25T10:32:19.378Z,18.10
2023-01-25T10:34:56.313Z,18.57
2023-01-25T10:37:30.952Z,18.77
2023-01-25T10:40:04.983Z,18.97
2023-01-25T10:42:42.481Z,19.73
2023-01-25T10:45:14.508Z,19.17
2023-01-25T10:47:44.904Z,19.27
2023-01-25T10:50:38.459Z,18.20
2023-01-25T10:53:07.107Z,20.73
2023-01-25T10:55:35.426Z,22.03
2023-01-25T10:58:04.488Z,20.53
2023-01-25T11:00:40.072Z,23.50
2023-01-25T11:03:25.291Z,22.77
2023-01-25T11:05:58.422Z,21.33
2023-01-25T11:08:33.315Z,23.30
2023-01-25T11:11:14.010Z,26.90
2023-01-25T11:13:43.170Z,25.50
2023-01-25T11:16:18.121Z,24.43
2023-01-25T11:18:51.676Z,25.00
2023-01-25T11:21:24.080Z,24.53
2023-01-25T11:24:05.243Z,23.87
2023-01-25T11:26:34.286Z,24.33
2023-01-25T11:29:19.114Z,22.77
2023-01-25T11:31:51.017Z,23.93
2023-01-25T11:34:20.472Z,22.63
2023-01-25T11:36:48.602Z,25.50
2023-01-25T11:39:43.982Z,24.23
2023-01-25T11:42:43.175Z,25.60
2023-01-25T11:45:14.349Z,25.00
2023-01-25T11:47:44.670Z,26.20
2023-01-25T11:50:30.440Z,27.97
2023-01-25T11:53:07.973Z,28.37
2023-01-25T11:55:42.866Z,31.40
2023-01-25T11:58:35.746Z,28.60
2023-01-25T12:01:25.116Z,27.70
2023-01-25T12:04:05.341Z,28.60
2023-01-25T12:06:46.446Z,29.10
2023-01-25T12:09:22.999Z,28.03
2023-01-25T12:12:17.453Z,28.83
2023-01-25T12:15:05.973Z,28.63
2023-01-25T12:17:35.220Z,28.03
2023-01-25T12:20:09.449Z,29.27
2023-01-25T12:22:40.713Z,30.00
2023-01-25T12:25:23.527Z,30.83
2023-01-25T12:27:54.746Z,32.40
2023-01-25T12:30:46.025Z,35.30
2023-01-25T12:33:18.449Z,30.90
2023-01-25T12:36:04.455Z,31.30
2023-01-25T12:39:02.902Z,31.63
2023-01-25T12:41:30.637Z,31.20
2023-01-25T12:44:09.269Z,30.40
2023-01-25T12:46:43.468Z,29.80
2023-01-25T12:49:43.156Z,30.43
2023-01-25T12:52:22.595Z,32.20
2023-01-25T12:54:54.106Z,29.97
2023-01-25T12:57:23.199Z,32.93
2023-01-25T13:00:10.208Z,31.33
2023-01-25T13:02:59.540Z,30.83
2023-01-25T13:05:53.686Z,34.23
2023-01-25T13:08:58.000Z,32.97
2023-01-25T13:11:52.425Z,31.13
2023-01-25T13:14:26.239Z,33.57
2023-01-25T13:17:09.282Z,34.00
2023-01-25T13:19:37.968Z,35.87
2023-01-25T13:22:06.915Z,38.00
2023-01-25T13:24:55.382Z,38.67
2023-01-25T13:27:29.365Z,35.50
2023-01-25T13:30:01.190Z,35.20
2023-01-25T13:32:29.693Z,35.87
2023-01-25T13:34:59.456Z,35.10
2023-01-25T13:37:35.711Z,35.93
2023-01-25T13:40:07.560Z,35.40
2023-01-25T13:42:39.228Z,32.83
2023-01-25T13:45:21.527Z,34.77
2023-01-25T13:48:05.069Z,33.67
2023-01-25T13:50:37.235Z,33.73
2023-01-25T13:53:07.157Z,35.63
2023-01-25T13:55:49.029Z,35.47
2023-01-25T13:58:19.201Z,32.63
2023-01-25T14:00:56.317Z,32.70
2023-01-25T14:03:30.703Z,34.00
2023-01-25T14:06:03.382Z,30.80
2023-01-25T14:08:32.478Z,27.77
2023-01-25T14:11:00.915Z,30.27
2023-01-25T14:13:29.176Z,29.47
2023-01-25T14:15:59.044Z,27.60
2023-01-25T14:18:38.968Z,27.97
2023-01-25T14:21:25.543Z,29.17
2023-01-25T14:23:54.122Z,29.50
2023-01-25T14:26:24.076Z,29.63
2023-01-25T14:29:02.713Z,29.20
2023-01-25T14:31:36.846Z,29.97
2023-01-25T14:34:06.332Z,30.67
2023-01-25T14:36:35.858Z,32.90
2023-01-25T14:39:15.147Z,31.30
2023-01-25T14:42:00.140Z,31.07
2023-01-25T14:44:31.153Z,33.60
2023-01-25T14:47:30.721Z,31.97
2023-01-25T14:50:34.146Z,31.50
2023-01-25T14:53:23.354Z,30.20
2023-01-25T14:55:53.753Z,33.53
2023-01-25T14:58:30.530Z,32.73
2023-01-25T15:01:02.254Z,33.33
2023-01-25T15:03:31.562Z,35.80
2023-01-25T15:06:02.710Z,48.80
2023-01-25T15:08:39.044Z,40.03
2023-01-25T15:11:37.944Z,42.30
2023-01-25T15:14:20.753Z,33.10
2023-01-25T15:16:49.904Z,33.00
2023-01-25T15:19:29.140Z,33.20
2023-01-25T15:22:01.446Z,32.13
2023-01-25T15:24:29.398Z,39.90
2023-01-25T15:26:57.820Z,40.40
2023-01-25T15:29:27.321Z,33.40
2023-01-25T15:31:56.796Z,34.43
2023-01-25T15:34:32.558Z,35.30
2023-01-25T15:37:00.520Z,33.60
2023-01-25T15:39:29.000Z,35.53
2023-01-25T15:41:57.357Z,34.33
2023-01-25T15:44:25.253Z,36.10
2023-01-25T15:46:53.777Z,33.83
2023-01-25T15:49:26.877Z,34.00
2023-01-25T15:51:55.506Z,35.83
2023-01-25T15:54:24.480Z,32.90
2023-01-25T15:56:55.715Z,34.07
2023-01-25T15:59:23.739Z,35.93
2023-01-25T16:01:51.905Z,33.90
2023-01-25T16:04:19.640Z,35.50
2023-01-25T16:06:52.209Z,32.17
2023-01-25T16:09:21.659Z,33.93
2023-01-25T16:11:54.773Z,34.90
2023-01-25T16:14:23.972Z,34.27
2023-01-25T16:16:52.984Z,34.00
2023-01-25T16:19:22.503Z,33.47
2023-01-25T16:21:51.574Z,32.50
2023-01-25T16:24:19.537Z,32.10
2023-01-25T16:26:57.891Z,32.07
2023-01-25T16:29:26.160Z,33.57
2023-01-25T16:31:55.338Z,35.83
2023-01-25T16:34:23.520Z,34.97
2023-01-25T16:36:51.909Z,35.83
2023-01-25T16:39:21.430Z,37.37
2023-01-25T16:41:49.980Z,36.87
2023-01-25T16:44:18.252Z,36.90
2023-01-25T16:46:48.391Z,37.60
2023-01-25T16:49:17.339Z,40.40
2023-01-25T16:51:45.577Z,36.97
2023-01-25T16:54:13.686Z,39.73
2023-01-25T16:56:41.821Z,37.33
2023-01-25T16:59:11.356Z,35.03
2023-01-25T17:01:41.618Z,36.07
2023-01-25T17:04:10.189Z,38.07
2023-01-25T17:06:42.966Z,37.40
2023-01-25T17:09:23.382Z,35.77
2023-01-25T17:11:56.079Z,37.40
2023-01-25T17:14:24.554Z,36.13
2023-01-25T17:16:54.075Z,35.50
2023-01-25T17:19:22.036Z,36.53
2023-01-25T17:21:50.508Z,37.23
2023-01-25T17:24:21.784Z,35.70
2023-01-25T17:26:51.830Z,40.50
2023-01-25T17:29:19.984Z,38.03
2023-01-25T17:31:48.661Z,36.97
2023-01-25T17:34:22.154Z,37.50
2023-01-25T17:36:50.990Z,39.50
2023-01-25T17:39:19.901Z,37.50
2023-01-25T17:41:51.436Z,40.03
2023-01-25T17:44:20.988Z,37.40
2023-01-25T17:46:50.620Z,37.47
2023-01-25T17:49:19.420Z,38.80
2023-01-25T17:51:48.029Z,37.30
2023-01-25T17:54:16.017Z,40.40
2023-01-25T17:56:44.676Z,41.27
2023-01-25T17:59:12.775Z,40.33
2023-01-25T18:01:44.260Z,39.00
2023-01-25T18:04:13.539Z,39.80
2023-01-25T18:06:41.909Z,38.97
2023-01-25T18:09:09.879Z,41.40
2023-01-25T18:11:40.968Z,56.97
2023-01-25T18:14:11.179Z,44.30
2023-01-25T18:16:41.316Z,66.20
2023-01-25T18:19:09.983Z,46.90
2023-01-25T18:21:39.380Z,43.57
2023-01-25T18:24:23.746Z,41.53
2023-01-25T18:26:52.757Z,40.63
2023-01-25T18:29:32.907Z,41.33
2023-01-25T18:32:02.867Z,40.33
2023-01-25T18:34:30.839Z,40.23
2023-01-25T18:36:59.489Z,41.80
2023-01-25T18:39:28.622Z,40.03
2023-01-25T18:42:00.010Z,42.97
2023-01-25T18:44:29.353Z,40.17
2023-01-25T18:46:57.661Z,41.40
2023-01-25T18:49:25.467Z,43.50
2023-01-25T18:52:10.583Z,41.37
2023-01-25T18:54:39.561Z,42.80
2023-01-25T18:57:07.847Z,40.57
2023-01-25T18:59:35.891Z,43.27
2023-01-25T19:02:05.114Z,39.97
2023-01-25T19:04:33.679Z,42.37
2023-01-25T19:07:01.745Z,41.90
2023-01-25T19:09:30.418Z,41.43
2023-01-25T19:11:59.125Z,40.43
2023-01-25T19:14:27.298Z,42.87
2023-01-25T19:16:55.804Z,47.20
2023-01-25T19:19:23.856Z,45.03
2023-01-25T19:21:51.921Z,42.47
2023-01-25T19:24:21.073Z,40.23
2023-01-25T19:26:49.337Z,43.90
2023-01-25T19:29:17.239Z,39.10
2023-01-25T19:31:45.762Z,40.20
2023-01-25T19:34:13.831Z,39.83
2023-01-25T19:36:49.565Z,39.17
2023-01-25T19:39:18.984Z,39.83
2023-01-25T19:41:47.783Z,38.77
2023-01-25T19:44:16.177Z,43.23
2023-01-25T19:46:44.867Z,38.77
2023-01-25T19:49:14.460Z,43.87
2023-01-25T19:51:45.699Z,42.27
2023-01-25T19:54:18.762Z,44.40
2023-01-25T19:56:49.101Z,47.50
2023-01-25T19:59:18.621Z,44.97
2023-01-25T20:01:49.451Z,40.43
2023-01-25T20:04:20.353Z,42.40
2023-01-25T20:06:50.980Z,40.83
2023-01-25T20:09:20.753Z,43.13
2023-01-25T20:11:49.886Z,41.83
2023-01-25T20:14:18.494Z,39.83
2023-01-25T20:16:49.598Z,45.77
2023-01-25T20:19:17.735Z,41.23
2023-01-25T20:21:46.255Z,42.50
2023-01-25T20:24:14.823Z,45.87
2023-01-25T20:26:45.134Z,51.00
2023-01-25T20:29:13.551Z,48.50
2023-01-25T20:31:46.361Z,44.57
2023-01-25T20:34:16.298Z,45.03
2023-01-25T20:36:45.545Z,41.40
2023-01-25T20:39:16.407Z,43.27
2023-01-25T20:41:45.969Z,42.90
2023-01-25T20:44:15.031Z,44.10
2023-01-25T20:46:44.136Z,44.20
2023-01-25T20:49:16.953Z,42.20
2023-01-25T20:51:45.154Z,41.53
2023-01-25T20:54:13.738Z,43.50
2023-01-25T20:56:43.670Z,44.33
2023-01-25T20:59:12.321Z,45.70
2023-01-25T21:01:40.881Z,45.60
2023-01-25T21:04:11.435Z,45.07
2023-01-25T21:06:43.561Z,45.67
2023-01-25T21:09:12.236Z,46.80
2023-01-25T21:11:40.493Z,43.83
2023-01-25T21:14:08.640Z,47.17
2023-01-25T21:16:37.120Z,47.73
2023-01-25T21:19:06.564Z,46.63
2023-01-25T21:21:35.085Z,44.60
2023-01-25T21:24:05.479Z,43.57
2023-01-25T21:26:34.593Z,43.73
2023-01-25T21:29:03.494Z,45.97
2023-01-25T21:31:36.687Z,45.13
2023-01-25T21:34:06.879Z,44.43
2023-01-25T21:36:35.088Z,44.90
2023-01-25T21:39:03.424Z,46.33
2023-01-25T21:41:33.879Z,44.60
2023-01-25T21:44:20.856Z,45.60
2023-01-25T21:47:16.293Z,47.63
2023-01-25T21:49:55.769Z,49.77
2023-01-25T21:52:23.707Z,45.60
2023-01-25T21:54:51.865Z,44.50
2023-01-25T21:57:20.221Z,46.20
2023-01-25T21:59:49.029Z,46.20
2023-01-25T22:02:16.947Z,41.93
2023-01-25T22:04:45.255Z,43.60
2023-01-25T22:07:13.179Z,48.80
2023-01-25T22:09:41.284Z,46.00
2023-01-25T22:12:09.831Z,67.27
2023-01-25T22:14:38.152Z,53.93
2023-01-25T22:17:06.174Z,55.97
2023-01-25T22:19:34.540Z,47.87
2023-01-25T22:22:02.660Z,45.90
2023-01-25T22:24:30.697Z,46.20
2023-01-25T22:27:23.653Z,46.63
2023-01-25T22:29:51.643Z,48.70
2023-01-25T22:32:20.634Z,45.13
2023-01-25T22:34:48.774Z,41.40
2023-01-25T22:37:16.502Z,41.30
2023-01-25T22:39:45.649Z,42.57
2023-01-25T22:42:13.461Z,41.70
2023-01-25T22:44:41.740Z,39.03
2023-01-25T22:47:09.505Z,38.83
2023-01-25T22:49:37.621Z,41.40
2023-01-25T22:52:05.394Z,41.30
2023-01-25T22:54:33.405Z,42.23
2023-01-25T22:57:01.141Z,39.43
2023-01-25T22:59:29.373Z,41.53
2023-01-25T23:01:57.200Z,43.03
2023-01-25T23:04:25.606Z,38.83
2023-01-25T23:07:02.886Z,39.47
2023-01-25T23:09:31.293Z,40.80
2023-01-25T23:11:59.193Z,42.00
2023-01-25T23:14:46.027Z,43.67
2023-01-25T23:17:32.388Z,41.20
2023-01-25T23:20:00.445Z,41.07
2023-01-25T23:22:28.280Z,40.90
2023-01-25T23:24:56.267Z,43.13
2023-01-25T23:27:24.098Z,41.33
2023-01-25T23:29:52.067Z,43.27
2023-01-25T23:32:20.046Z,41.57
2023-01-25T23:34:53.294Z,44.37
2023-01-25T23:37:22.206Z,41.50
2023-01-25T23:39:50.644Z,45.53
2023-01-25T23:42:19.007Z,41.73
2023-01-25T23:44:47.015Z,42.70
2023-01-25T23:47:14.817Z,40.87
2023-01-25T23:49:42.844Z,42.77
2023-01-25T23:52:10.534Z,45.07
2023-01-25T23:54:38.556Z,44.93
2023-01-25T23:57:06.339Z,45.23
2023-01-25T23:59:34.673Z,44.50
